Liberta — V2CM3 — position and weather

sailwx.info

Track history (hours):
 
Tides and Currents Weather Stations Pressure Air Temp Water Temp Dewpoint Dewpoint Depression Visibility Wind Speed Wind Dir Waves Ship Positions

Liberta

Last reported at 2014-Sep-23 10:21 UTC. Time now 2014-Sep-30 22:06 UTC.
Position N 35°59' W 005°15'.

Length 138 m; draft 7.7 m.

Type: Cargo ship. MMSI: 305043000.

Date/timePositionNaut miles runAvg speedWind from/ knotsBaromVisibWave heightAir tempDewpointWater temp
2014-Sep-23 10:21N 35°59' W 005°15'242 9.7
2014-Sep-22 09:27N 37°39' W 009°50'1010.3
2014-Sep-22 08:30N 37°48' W 009°53'  
2014-Sep-17 19:30N 38°16' W 009°39'1010.4
2014-Sep-17 18:33N 38°06' W 009°37'1110.6
2014-Sep-17 17:33N 37°56' W 009°34'1111.0
2014-Sep-17 16:33N 37°45' W 009°32'71 8.7
2014-Sep-17 08:22N 36°42' W 008°51'5 6.2
2014-Sep-17 07:32N 36°40' W 008°45'  
2014-Sep-14 19:33N 36°34' W 000°25'2210.1
2014-Sep-14 17:20N 36°38' E 000°03'810.1
2014-Sep-14 16:33N 36°40' E 000°12'1010.1
2014-Sep-14 15:33N 36°42' E 000°24'12 9.1
2014-Sep-14 14:14N 36°45' E 000°39'9 9.2
2014-Sep-14 13:12N 36°46' E 000°51'27 9.4
2014-Sep-14 10:18N 36°54' E 001°24'910.0
2014-Sep-14 09:26N 36°56' E 001°34'1210.6
2014-Sep-14 08:20N 36°57' E 001°48'2110.9
2014-Sep-14 06:24N 36°60' E 002°15'9410.4
2014-Sep-13 21:23N 37°07' E 004°12'910.7
2014-Sep-13 20:34N 37°07' E 004°23'  
Track history (hours):
 
Tides and Currents Weather Stations Pressure Air Temp Water Temp Dewpoint Dewpoint Depression Visibility Wind Speed Wind Dir Waves Ship Positions

Liberta

Last reported at 2014-Sep-23 10:21 UTC. Time now 2014-Sep-30 22:06 UTC.
Position N 35°59' W 005°15'.

Length 138 m; draft 7.7 m.

Type: Cargo ship. MMSI: 305043000.

Date/timePositionNaut miles runAvg speedWind from/ knotsBaromVisibWave heightAir tempDewpointWater temp
2014-Sep-23 10:21N 35°59' W 005°15'242 9.7
2014-Sep-22 09:27N 37°39' W 009°50'1010.3
2014-Sep-22 08:30N 37°48' W 009°53'  
2014-Sep-17 19:30N 38°16' W 009°39'1010.4
2014-Sep-17 18:33N 38°06' W 009°37'1110.6
2014-Sep-17 17:33N 37°56' W 009°34'1111.0
2014-Sep-17 16:33N 37°45' W 009°32'71 8.7
2014-Sep-17 08:22N 36°42' W 008°51'5 6.2
2014-Sep-17 07:32N 36°40' W 008°45'  
2014-Sep-14 19:33N 36°34' W 000°25'2210.1
2014-Sep-14 17:20N 36°38' E 000°03'810.1
2014-Sep-14 16:33N 36°40' E 000°12'1010.1
2014-Sep-14 15:33N 36°42' E 000°24'12 9.1
2014-Sep-14 14:14N 36°45' E 000°39'9 9.2
2014-Sep-14 13:12N 36°46' E 000°51'27 9.4
2014-Sep-14 10:18N 36°54' E 001°24'910.0
2014-Sep-14 09:26N 36°56' E 001°34'1210.6
2014-Sep-14 08:20N 36°57' E 001°48'2110.9
2014-Sep-14 06:24N 36°60' E 002°15'9410.4
2014-Sep-13 21:23N 37°07' E 004°12'910.7
2014-Sep-13 20:34N 37°07' E 004°23'  

Dump ship's entire track history